createdAt,value
2023-06-19T00:00:20.695Z,249.19
2023-06-19T00:01:20.703Z,248.45
2023-06-19T00:02:20.716Z,248.40
2023-06-19T00:03:20.769Z,248.51
2023-06-19T00:04:20.891Z,249.02
2023-06-19T00:05:20.839Z,248.31
2023-06-19T00:06:20.874Z,248.83
2023-06-19T00:07:20.914Z,248.38
2023-06-19T00:08:20.960Z,248.80
2023-06-19T00:09:21.030Z,249.75
2023-06-19T00:10:21.520Z,248.92
2023-06-19T00:11:21.153Z,248.51
2023-06-19T00:12:21.232Z,248.32
2023-06-19T00:13:21.277Z,249.02
2023-06-19T00:14:21.313Z,248.70
2023-06-19T00:15:21.381Z,248.40
2023-06-19T00:16:21.494Z,248.46
2023-06-19T00:17:21.555Z,248.58
2023-06-19T00:18:21.576Z,248.23
2023-06-19T00:19:21.654Z,249.06
2023-06-19T00:20:21.880Z,248.61
2023-06-19T00:21:21.779Z,248.46
2023-06-19T00:22:21.846Z,248.64
2023-06-19T00:23:21.918Z,247.88
2023-06-19T00:24:22.025Z,248.20
2023-06-19T00:25:22.025Z,247.59
2023-06-19T00:26:22.086Z,248.24
2023-06-19T00:27:22.141Z,248.60
2023-06-19T00:28:22.211Z,248.67
2023-06-19T00:29:22.263Z,248.00
2023-06-19T00:30:22.693Z,248.13
2023-06-19T00:31:22.405Z,248.25
2023-06-19T00:32:22.528Z,249.23
2023-06-19T00:33:22.523Z,248.44
2023-06-19T00:34:22.601Z,248.61
2023-06-19T00:35:22.665Z,248.90
2023-06-19T00:36:22.732Z,248.19
2023-06-19T00:37:22.800Z,248.53
2023-06-19T00:38:22.864Z,248.58
2023-06-19T00:39:22.917Z,248.86
2023-06-19T00:40:23.261Z,248.33
2023-06-19T00:41:23.031Z,249.32
2023-06-19T00:42:23.098Z,249.08
2023-06-19T00:43:23.163Z,248.45
2023-06-19T00:44:23.159Z,248.48
2023-06-19T00:45:23.150Z,248.61
2023-06-19T00:46:23.191Z,248.69
2023-06-19T00:47:23.182Z,249.44
2023-06-19T00:48:23.158Z,248.94
2023-06-19T00:49:23.151Z,249.04
2023-06-19T00:50:23.413Z,248.13
2023-06-19T00:51:23.147Z,248.03
2023-06-19T00:52:23.168Z,248.89
2023-06-19T00:53:23.233Z,248.35
2023-06-19T00:54:23.308Z,248.39
2023-06-19T00:55:23.377Z,248.28
2023-06-19T00:56:23.453Z,248.93
2023-06-19T00:57:23.506Z,248.57
2023-06-19T00:58:23.574Z,249.61
2023-06-19T00:59:23.632Z,248.98
2023-06-19T01:00:24.024Z,248.26
2023-06-19T01:01:23.755Z,247.93
2023-06-19T01:02:23.900Z,248.18
2023-06-19T01:03:23.959Z,247.99
2023-06-19T01:04:24.019Z,247.91
2023-06-19T01:05:24.031Z,248.26
2023-06-19T01:06:24.105Z,248.33
2023-06-19T01:07:24.187Z,247.98
2023-06-19T01:08:24.247Z,248.21
2023-06-19T01:09:24.322Z,247.03
2023-06-19T01:10:24.588Z,247.59
2023-06-19T01:11:26.776Z,248.84
2023-06-19T01:12:24.454Z,248.24
2023-06-19T01:13:24.453Z,248.17
2023-06-19T01:14:24.457Z,247.67
2023-06-19T01:15:24.465Z,247.79
2023-06-19T01:16:24.516Z,248.03
2023-06-19T01:17:24.502Z,248.01
2023-06-19T01:18:24.477Z,248.10
2023-06-19T01:19:24.468Z,248.25
2023-06-19T01:20:24.701Z,247.93
2023-06-19T01:21:24.460Z,247.65
2023-06-19T01:22:24.479Z,247.63
2023-06-19T01:23:24.473Z,248.60
2023-06-19T01:24:24.521Z,247.93
2023-06-19T01:25:24.458Z,248.40
2023-06-19T01:26:24.477Z,248.83
2023-06-19T01:27:24.478Z,248.65
2023-06-19T01:28:24.460Z,247.75
2023-06-19T01:29:24.457Z,248.15
2023-06-19T01:30:24.700Z,247.65
2023-06-19T01:31:24.462Z,248.02
2023-06-19T01:32:24.483Z,248.14
2023-06-19T01:33:24.472Z,249.10
2023-06-19T01:34:24.457Z,248.80
2023-06-19T01:35:24.452Z,248.25
2023-06-19T01:36:24.439Z,249.04
2023-06-19T01:37:24.481Z,248.55
2023-06-19T01:38:24.432Z,248.14
2023-06-19T01:39:24.432Z,248.58
2023-06-19T01:40:24.609Z,248.59
2023-06-19T01:41:24.424Z,249.04
2023-06-19T01:42:24.426Z,249.39
2023-06-19T01:43:24.416Z,248.63
2023-06-19T01:44:24.465Z,248.66
2023-06-19T01:45:24.544Z,247.56
2023-06-19T01:46:24.642Z,248.98
2023-06-19T01:47:24.738Z,249.04
2023-06-19T01:48:24.747Z,249.15
2023-06-19T01:49:24.822Z,248.63
2023-06-19T01:50:25.217Z,247.60
2023-06-19T01:51:24.951Z,249.01
2023-06-19T01:52:25.032Z,248.78
2023-06-19T01:53:25.083Z,249.23
2023-06-19T01:54:25.148Z,248.54
2023-06-19T01:55:25.205Z,248.92
2023-06-19T01:56:25.312Z,249.25
2023-06-19T01:57:25.343Z,249.51
2023-06-19T01:58:25.415Z,247.68
2023-06-19T01:59:25.476Z,249.35
2023-06-19T02:00:25.789Z,248.58
2023-06-19T02:01:25.637Z,249.40
2023-06-19T02:02:25.708Z,249.30
2023-06-19T02:03:25.849Z,249.21
2023-06-19T02:04:25.831Z,249.23
2023-06-19T02:05:25.898Z,249.22
2023-06-19T02:06:25.970Z,249.08
2023-06-19T02:07:26.048Z,248.15
2023-06-19T02:08:26.109Z,248.91
2023-06-19T02:09:26.181Z,249.52
2023-06-19T02:10:26.338Z,249.87
2023-06-19T02:11:26.332Z,248.89
2023-06-19T02:12:26.393Z,249.23
2023-06-19T02:13:26.422Z,249.25
2023-06-19T02:14:26.461Z,249.29
2023-06-19T02:15:26.407Z,248.94
2023-06-19T02:16:26.508Z,249.04
2023-06-19T02:17:26.500Z,248.69
2023-06-19T02:18:26.488Z,248.21
2023-06-19T02:19:26.515Z,248.44
2023-06-19T02:20:26.599Z,248.83
2023-06-19T02:21:26.509Z,249.63
2023-06-19T02:22:26.490Z,249.64
2023-06-19T02:23:26.379Z,249.21
2023-06-19T02:24:26.443Z,248.66
2023-06-19T02:25:26.418Z,248.49
2023-06-19T02:26:26.380Z,248.51
2023-06-19T02:27:26.379Z,248.25
2023-06-19T02:28:26.388Z,248.03
2023-06-19T02:29:26.401Z,248.68
2023-06-19T02:30:26.506Z,248.25
2023-06-19T02:31:26.430Z,248.07
2023-06-19T02:32:26.506Z,247.12
2023-06-19T02:33:26.583Z,247.26
2023-06-19T02:34:26.607Z,248.00
2023-06-19T02:35:26.733Z,247.62
2023-06-19T02:36:26.718Z,248.41
2023-06-19T02:37:26.777Z,247.16
2023-06-19T02:38:26.827Z,246.58
2023-06-19T02:39:26.852Z,246.98
2023-06-19T02:40:27.032Z,247.25
2023-06-19T02:41:26.920Z,246.78
2023-06-19T02:42:26.984Z,246.30
2023-06-19T02:43:27.013Z,246.66
2023-06-19T02:44:27.053Z,246.95
2023-06-19T02:45:27.105Z,246.60
2023-06-19T02:46:27.179Z,246.35
2023-06-19T02:47:27.142Z,245.90
2023-06-19T02:48:27.131Z,245.76
2023-06-19T02:49:27.129Z,245.22
2023-06-19T02:50:27.331Z,244.76
2023-06-19T02:51:27.189Z,244.47
2023-06-19T02:52:27.180Z,244.33
2023-06-19T02:53:27.200Z,244.45
2023-06-19T02:54:27.258Z,245.16
2023-06-19T02:55:27.300Z,245.76
2023-06-19T02:56:27.343Z,244.59
2023-06-19T02:57:27.390Z,245.22
2023-06-19T02:58:27.388Z,244.36
2023-06-19T02:59:27.383Z,244.22
2023-06-19T03:00:27.434Z,244.86
2023-06-19T03:01:27.505Z,243.66
2023-06-19T03:02:27.603Z,244.50
2023-06-19T03:03:27.643Z,243.08
2023-06-19T03:04:29.374Z,242.95
2023-06-19T03:05:27.538Z,235.20
2023-06-19T03:06:27.550Z,226.62
2023-06-19T03:07:27.549Z,216.62
2023-06-19T03:08:27.532Z,207.45
2023-06-19T03:09:27.538Z,199.40
2023-06-19T03:10:27.600Z,193.49
2023-06-19T03:11:27.536Z,183.05
2023-06-19T03:12:27.549Z,172.12
2023-06-19T03:13:27.553Z,164.03
2023-06-19T03:14:27.554Z,155.75
2023-06-19T03:15:27.556Z,148.13
2023-06-19T03:16:27.563Z,139.85
2023-06-19T03:17:27.592Z,131.90
2023-06-19T03:18:27.551Z,125.72
2023-06-19T03:19:27.561Z,119.02
2023-06-19T03:20:27.839Z,112.64
2023-06-19T03:21:27.568Z,106.04
2023-06-19T03:22:27.604Z,101.80
2023-06-19T03:23:27.599Z,94.95
2023-06-19T03:24:27.809Z,90.13
2023-06-19T03:25:27.600Z,86.15
2023-06-19T03:26:27.622Z,79.96
2023-06-19T03:27:27.635Z,79.42
2023-06-19T03:28:27.619Z,76.91
2023-06-19T03:29:27.647Z,73.87
2023-06-19T03:30:27.655Z,70.16
2023-06-19T03:31:27.645Z,68.09
2023-06-19T03:32:28.640Z,65.00
2023-06-19T03:33:27.700Z,63.40
2023-06-19T03:34:27.683Z,61.84
2023-06-19T03:35:27.687Z,58.93
2023-06-19T03:36:27.693Z,58.45
2023-06-19T03:37:27.727Z,57.02
2023-06-19T03:38:27.760Z,56.70
2023-06-19T03:39:27.743Z,56.76
2023-06-19T03:40:28.944Z,53.90
2023-06-19T03:41:27.754Z,53.67
2023-06-19T03:42:27.782Z,53.33
2023-06-19T03:43:27.773Z,53.33
2023-06-19T03:44:27.782Z,51.40
2023-06-19T03:45:27.782Z,52.14
2023-06-19T03:46:27.887Z,51.19
2023-06-19T03:47:27.841Z,50.60
2023-06-19T03:48:27.819Z,50.01
2023-06-19T03:49:27.825Z,49.09
2023-06-19T03:50:27.941Z,46.44
2023-06-19T03:51:27.847Z,48.06
2023-06-19T03:52:27.852Z,45.82
2023-06-19T03:53:27.857Z,44.05
2023-06-19T03:54:27.866Z,43.46
2023-06-19T03:55:27.894Z,41.62
2023-06-19T03:56:27.891Z,40.79
2023-06-19T03:57:27.894Z,40.42
2023-06-19T03:58:27.897Z,43.57
2023-06-19T03:59:27.938Z,42.83
2023-06-19T04:00:28.109Z,41.04
2023-06-19T04:01:27.998Z,40.13
2023-06-19T04:02:28.007Z,42.43
2023-06-19T04:03:28.083Z,42.01
2023-06-19T04:04:27.984Z,42.56
2023-06-19T04:05:27.994Z,44.21
2023-06-19T04:06:28.007Z,42.78
2023-06-19T04:07:28.009Z,45.56
2023-06-19T04:08:28.029Z,47.71
2023-06-19T04:09:28.038Z,49.14
2023-06-19T04:10:28.049Z,49.38
2023-06-19T04:11:28.050Z,50.21
2023-06-19T04:12:28.071Z,52.47
2023-06-19T04:13:28.074Z,53.79
2023-06-19T04:14:28.092Z,54.40
2023-06-19T04:15:28.129Z,56.79
2023-06-19T04:16:28.162Z,58.06
2023-06-19T04:17:28.135Z,58.68
2023-06-19T04:18:28.130Z,59.80
2023-06-19T04:19:28.134Z,59.81
2023-06-19T04:20:28.148Z,60.17
2023-06-19T04:21:28.156Z,60.24
2023-06-19T04:22:28.171Z,60.34
2023-06-19T04:23:28.174Z,60.49
2023-06-19T04:24:28.282Z,61.13
2023-06-19T04:25:28.190Z,63.39
2023-06-19T04:26:28.215Z,62.01
2023-06-19T04:27:28.211Z,62.05
2023-06-19T04:28:28.230Z,61.90
2023-06-19T04:29:28.235Z,63.17
2023-06-19T04:30:28.246Z,62.09
2023-06-19T04:31:28.255Z,62.16
2023-06-19T04:32:28.365Z,62.45
2023-06-19T04:33:28.400Z,62.22
2023-06-19T04:34:28.304Z,62.55
2023-06-19T04:35:28.295Z,63.31
2023-06-19T04:36:28.318Z,64.22
2023-06-19T04:37:28.330Z,65.36
2023-06-19T04:38:28.345Z,64.92
2023-06-19T04:39:28.362Z,63.37
2023-06-19T04:40:28.378Z,65.77
2023-06-19T04:41:28.395Z,67.07
2023-06-19T04:42:28.410Z,67.12
2023-06-19T04:43:28.409Z,69.87
2023-06-19T04:44:28.428Z,75.46
2023-06-19T04:45:28.442Z,76.83
2023-06-19T04:46:28.546Z,78.35
2023-06-19T04:47:43.555Z,77.42
2023-06-19T04:48:29.599Z,77.54
2023-06-19T04:49:28.563Z,77.74
2023-06-19T04:50:28.565Z,78.24
2023-06-19T04:51:28.577Z,77.85
2023-06-19T04:52:28.592Z,78.48
2023-06-19T04:53:28.597Z,78.78
2023-06-19T04:54:28.593Z,77.29
2023-06-19T04:55:28.608Z,76.73
2023-06-19T04:56:28.604Z,75.98
2023-06-19T04:57:28.623Z,76.22
2023-06-19T04:58:28.626Z,75.96
2023-06-19T04:59:28.638Z,76.60
2023-06-19T05:00:28.668Z,76.93
2023-06-19T05:01:28.801Z,76.74
2023-06-19T05:02:28.809Z,76.96
2023-06-19T05:03:28.854Z,75.50
2023-06-19T05:04:28.931Z,76.13
2023-06-19T05:05:28.989Z,74.40
2023-06-19T05:06:28.995Z,74.47
2023-06-19T05:07:29.020Z,74.71
2023-06-19T05:08:29.013Z,76.76
2023-06-19T05:09:29.039Z,81.71
2023-06-19T05:10:29.045Z,86.44
2023-06-19T05:11:29.056Z,92.95
2023-06-19T05:12:29.062Z,98.91
2023-06-19T05:13:29.055Z,107.00
2023-06-19T05:14:29.070Z,110.28
2023-06-19T05:15:29.070Z,114.41
2023-06-19T05:16:29.194Z,114.51
2023-06-19T05:17:29.126Z,114.38
2023-06-19T05:18:29.119Z,115.29
2023-06-19T05:19:29.073Z,117.32
2023-06-19T05:20:29.103Z,120.66
2023-06-19T05:21:29.132Z,121.12
2023-06-19T05:22:29.181Z,122.30
2023-06-19T05:23:29.202Z,126.90
2023-06-19T05:24:29.263Z,128.55
2023-06-19T05:25:29.271Z,131.65
2023-06-19T05:26:29.342Z,133.34
2023-06-19T05:27:29.370Z,134.46
2023-06-19T05:28:29.380Z,137.65
2023-06-19T05:29:29.400Z,135.29
2023-06-19T05:30:29.438Z,133.97
2023-06-19T05:31:29.489Z,136.54
2023-06-19T05:32:29.610Z,139.06
2023-06-19T05:33:29.548Z,140.37
2023-06-19T05:34:29.582Z,143.76
2023-06-19T05:35:29.619Z,143.72
2023-06-19T05:36:29.652Z,144.05
2023-06-19T05:37:29.721Z,146.32
2023-06-19T05:38:29.726Z,149.03
2023-06-19T05:39:29.765Z,144.76
2023-06-19T05:40:29.811Z,137.02
2023-06-19T05:41:29.841Z,131.17
2023-06-19T05:42:29.890Z,131.07
2023-06-19T05:43:29.932Z,133.65
2023-06-19T05:44:29.962Z,147.18
2023-06-19T05:45:30.005Z,159.99
2023-06-19T05:46:30.052Z,174.69
2023-06-19T05:47:30.113Z,188.76
2023-06-19T05:48:30.104Z,196.78
2023-06-19T05:49:30.121Z,206.46
2023-06-19T05:50:30.140Z,215.56
2023-06-19T05:51:30.160Z,217.48
2023-06-19T05:52:30.206Z,220.44
2023-06-19T05:53:30.198Z,229.71
2023-06-19T05:54:30.188Z,233.34
2023-06-19T05:55:30.262Z,236.82
2023-06-19T05:56:30.198Z,239.91
2023-06-19T05:57:30.223Z,240.58
2023-06-19T05:58:30.219Z,244.53
2023-06-19T05:59:30.229Z,247.72
2023-06-19T06:00:30.257Z,249.94
2023-06-19T06:01:30.294Z,248.61
2023-06-19T06:02:30.269Z,241.18
2023-06-19T06:03:30.254Z,241.90
2023-06-19T06:04:30.284Z,239.50
2023-06-19T06:05:30.253Z,237.57
2023-06-19T06:06:30.256Z,233.18
2023-06-19T06:07:30.285Z,221.01
2023-06-19T06:08:30.279Z,216.68
2023-06-19T06:09:30.332Z,215.42
2023-06-19T06:10:30.366Z,214.85
2023-06-19T06:11:30.364Z,213.05
2023-06-19T06:12:30.395Z,209.63
2023-06-19T06:13:30.403Z,209.59
2023-06-19T06:14:30.459Z,199.85
2023-06-19T06:15:30.449Z,197.47
2023-06-19T06:16:30.521Z,202.45
2023-06-19T06:17:30.597Z,202.65
2023-06-19T06:18:30.641Z,195.29
2023-06-19T06:19:32.883Z,191.01
2023-06-19T06:20:30.809Z,191.68
2023-06-19T06:21:30.859Z,190.15
2023-06-19T06:22:30.917Z,186.10
2023-06-19T06:23:30.965Z,179.70
2023-06-19T06:24:31.083Z,180.03
2023-06-19T06:25:31.105Z,174.82
2023-06-19T06:26:31.147Z,149.15
2023-06-19T06:27:31.183Z,130.03
2023-06-19T06:28:31.171Z,109.74
2023-06-19T06:29:31.201Z,85.99
2023-06-19T06:30:31.178Z,63.96
2023-06-19T06:31:31.207Z,50.45
2023-06-19T06:32:31.214Z,35.80
2023-06-19T06:33:31.221Z,25.00
2023-06-19T06:34:31.219Z,25.90
2023-06-19T06:35:31.221Z,24.35
2023-06-19T06:37:31.246Z,17.23
2023-06-19T06:38:31.236Z,13.44
2023-06-19T06:39:31.240Z,13.28
2023-06-19T06:40:31.233Z,13.38
2023-06-19T06:41:31.245Z,11.15
2023-06-19T06:42:31.268Z,13.15
2023-06-19T06:43:31.248Z,20.39
2023-06-19T06:44:31.264Z,21.40
2023-06-19T06:45:31.302Z,22.05
2023-06-19T06:46:31.284Z,15.72
2023-06-19T06:47:31.295Z,19.60
2023-06-19T06:48:31.244Z,25.07
2023-06-19T06:49:31.276Z,24.91
2023-06-19T06:50:31.258Z,26.56
2023-06-19T06:51:31.267Z,25.76
2023-06-19T06:52:31.246Z,28.81
2023-06-19T06:53:31.241Z,28.31
2023-06-19T06:54:31.240Z,29.61
2023-06-19T06:55:31.259Z,26.10
2023-06-19T06:56:31.262Z,25.50
2023-06-19T06:57:31.256Z,31.32
2023-06-19T06:58:31.252Z,47.15
2023-06-19T06:59:31.250Z,63.72
2023-06-19T07:00:31.238Z,74.68
2023-06-19T07:01:31.311Z,92.46
2023-06-19T07:02:31.260Z,106.62
2023-06-19T07:03:31.258Z,114.39
2023-06-19T07:04:31.239Z,130.01
2023-06-19T07:05:31.228Z,132.57
2023-06-19T07:06:31.232Z,134.95
2023-06-19T07:07:31.230Z,141.93
2023-06-19T07:08:31.200Z,142.25
2023-06-19T07:09:31.196Z,145.00
2023-06-19T07:10:31.206Z,152.56
2023-06-19T07:11:31.208Z,157.87
2023-06-19T07:12:31.194Z,172.87
2023-06-19T07:13:31.177Z,181.27
2023-06-19T07:14:31.180Z,177.03
2023-06-19T07:15:31.207Z,175.60
2023-06-19T07:16:31.239Z,175.82
2023-06-19T07:17:31.201Z,173.80
2023-06-19T07:18:31.216Z,176.75
2023-06-19T07:19:31.159Z,180.64
2023-06-19T07:20:31.144Z,192.82
2023-06-19T07:21:31.131Z,190.20
2023-06-19T07:22:31.137Z,187.00
2023-06-19T07:23:31.158Z,189.67
2023-06-19T07:24:31.200Z,192.21
2023-06-19T07:25:31.229Z,196.53
2023-06-19T07:26:31.282Z,201.69
2023-06-19T07:27:31.331Z,206.11
2023-06-19T07:28:31.381Z,208.47
2023-06-19T07:29:31.418Z,208.61
2023-06-19T07:30:31.549Z,210.69
2023-06-19T07:31:31.513Z,211.57
2023-06-19T07:32:31.681Z,216.22
2023-06-19T07:33:31.597Z,220.14
2023-06-19T07:34:31.637Z,226.04
2023-06-19T07:35:31.740Z,233.10
2023-06-19T07:36:31.705Z,237.91
2023-06-19T07:37:32.897Z,241.53
2023-06-19T07:38:31.796Z,242.97
2023-06-19T07:39:31.835Z,236.84
2023-06-19T07:40:31.876Z,233.26
2023-06-19T07:41:31.882Z,224.26
2023-06-19T07:42:31.871Z,212.39
2023-06-19T07:43:31.843Z,207.88
2023-06-19T07:44:31.840Z,183.42
2023-06-19T07:45:31.823Z,155.93
2023-06-19T07:46:31.871Z,141.97
2023-06-19T07:47:31.847Z,131.10
2023-06-19T07:48:31.791Z,126.85
2023-06-19T07:49:31.792Z,125.37
2023-06-19T07:50:32.009Z,125.02
2023-06-19T07:51:31.748Z,124.85
2023-06-19T07:52:31.891Z,132.43
2023-06-19T07:53:31.799Z,137.94
2023-06-19T07:54:31.820Z,141.21
2023-06-19T07:55:31.854Z,148.89
2023-06-19T07:56:31.890Z,154.77
2023-06-19T07:57:31.874Z,154.96
2023-06-19T07:58:31.857Z,156.71
2023-06-19T07:59:31.854Z,160.95
2023-06-19T08:00:31.817Z,168.58
2023-06-19T08:01:31.804Z,179.78
2023-06-19T08:02:31.845Z,155.77
2023-06-19T08:03:31.924Z,159.14
2023-06-19T08:04:33.265Z,164.65
2023-06-19T08:05:31.740Z,172.66
2023-06-19T08:06:31.711Z,184.81
2023-06-19T08:07:31.702Z,184.55
2023-06-19T08:08:31.724Z,186.75
2023-06-19T08:09:31.668Z,189.03
2023-06-19T08:10:31.821Z,189.67
2023-06-19T08:11:31.619Z,190.61
2023-06-19T08:12:31.610Z,190.79
2023-06-19T08:13:31.590Z,190.79
2023-06-19T08:14:31.590Z,191.70
2023-06-19T08:15:31.552Z,194.25
2023-06-19T08:16:31.600Z,195.31
2023-06-19T08:17:31.575Z,168.66
2023-06-19T08:18:31.496Z,139.98
2023-06-19T08:19:31.483Z,120.52
2023-06-19T08:20:31.462Z,122.31
2023-06-19T08:21:31.458Z,116.82
2023-06-19T08:22:31.435Z,102.52
2023-06-19T08:23:31.467Z,86.43
2023-06-19T08:24:31.509Z,61.64
2023-06-19T08:25:31.438Z,38.41
2023-06-19T08:26:31.360Z,22.38
2023-06-19T08:27:31.372Z,26.30
2023-06-19T08:28:31.348Z,25.29
2023-06-19T08:29:31.337Z,25.43
2023-06-19T08:30:31.321Z,28.09
2023-06-19T08:31:31.316Z,39.98
2023-06-19T08:32:31.340Z,56.09
2023-06-19T08:33:31.299Z,72.78
2023-06-19T08:34:31.280Z,81.23
2023-06-19T08:35:31.299Z,94.71
2023-06-19T08:36:31.344Z,103.66
2023-06-19T08:37:31.351Z,113.93
2023-06-19T08:38:31.353Z,126.51
2023-06-19T08:39:31.378Z,136.87
2023-06-19T08:40:31.470Z,137.20
2023-06-19T08:41:31.416Z,143.53
2023-06-19T08:42:31.435Z,147.22
2023-06-19T08:43:31.458Z,151.68
2023-06-19T08:44:31.467Z,154.90
2023-06-19T08:45:31.448Z,154.44
2023-06-19T08:46:31.574Z,151.14
2023-06-19T08:47:31.480Z,155.58
2023-06-19T08:48:31.404Z,154.67
2023-06-19T08:49:31.396Z,154.81
2023-06-19T08:50:31.381Z,149.26
2023-06-19T08:51:31.399Z,146.37
2023-06-19T08:52:31.353Z,159.11
2023-06-19T08:53:31.340Z,172.20
2023-06-19T08:54:31.342Z,178.95
2023-06-19T08:55:31.331Z,176.71
2023-06-19T08:56:31.329Z,174.63
2023-06-19T08:57:31.288Z,174.82
2023-06-19T08:58:31.274Z,176.07
2023-06-19T08:59:31.254Z,178.96
2023-06-19T09:00:31.734Z,175.24
2023-06-19T09:01:31.244Z,177.05
2023-06-19T09:02:31.269Z,179.12
2023-06-19T09:03:31.378Z,183.67
2023-06-19T09:04:31.186Z,194.48
2023-06-19T09:05:31.176Z,197.25
2023-06-19T09:06:31.278Z,194.50
2023-06-19T09:08:50.188Z,25.00
2023-06-19T09:09:50.166Z,25.00
2023-06-19T09:10:50.162Z,25.00
2023-06-19T09:11:50.172Z,25.00
2023-06-19T09:12:50.177Z,25.00
2023-06-19T09:13:50.252Z,25.00
2023-06-19T09:14:50.187Z,25.00
2023-06-19T09:15:50.191Z,25.00
2023-06-19T09:16:50.191Z,25.00
2023-06-19T09:17:50.226Z,25.00
2023-06-19T09:18:50.206Z,25.00
2023-06-19T09:19:50.225Z,25.00
2023-06-19T09:20:50.217Z,39.98
2023-06-19T09:21:50.240Z,42.13
2023-06-19T09:22:50.229Z,10.25
2023-06-19T09:23:50.252Z,18.05
2023-06-19T09:24:50.356Z,50.76
2023-06-19T09:25:50.286Z,34.91
2023-06-19T09:26:50.297Z,39.36
2023-06-19T09:27:50.430Z,37.91
2023-06-19T09:28:50.366Z,70.41
2023-06-19T09:29:50.404Z,81.42
2023-06-19T09:30:50.445Z,85.51
2023-06-19T09:31:50.516Z,79.11
2023-06-19T09:32:50.617Z,92.06
2023-06-19T09:33:50.688Z,46.08
2023-06-19T09:34:50.647Z,41.45
2023-06-19T09:35:50.672Z,86.81
2023-06-19T09:36:50.731Z,177.16
2023-06-19T09:37:50.764Z,194.00
2023-06-19T09:38:50.760Z,194.36
2023-06-19T09:39:50.769Z,196.92
2023-06-19T09:40:50.766Z,191.62
2023-06-19T09:41:50.791Z,155.20
2023-06-19T09:42:50.791Z,157.97
2023-06-19T09:43:50.778Z,146.47
2023-06-19T09:44:50.799Z,127.26
2023-06-19T09:45:50.793Z,100.00
2023-06-19T09:46:50.848Z,100.38
2023-06-19T09:47:51.045Z,105.75
2023-06-19T09:48:50.807Z,105.45
2023-06-19T09:49:50.816Z,89.97
2023-06-19T09:50:50.822Z,88.96
2023-06-19T09:51:50.822Z,73.90
2023-06-19T09:52:50.826Z,20.15
2023-06-19T09:53:50.856Z,14.69
2023-06-19T09:54:50.858Z,0.00
2023-06-19T09:55:50.865Z,0.00
2023-06-19T09:56:50.866Z,0.00
2023-06-19T09:57:50.875Z,0.00
2023-06-19T09:58:50.881Z,0.00
2023-06-19T09:59:50.882Z,0.00
2023-06-19T10:00:50.898Z,0.00
2023-06-19T10:01:50.888Z,0.00
2023-06-19T10:02:50.975Z,0.00
2023-06-19T10:03:50.967Z,1.33
2023-06-19T10:04:50.999Z,48.85
2023-06-19T10:05:51.070Z,41.80
2023-06-19T10:06:51.142Z,41.79
2023-06-19T10:07:51.220Z,23.75
2023-06-19T10:08:51.276Z,5.47
2023-06-19T10:09:51.352Z,34.85
2023-06-19T10:10:51.422Z,25.51
2023-06-19T10:11:51.492Z,38.88
2023-06-19T10:12:51.572Z,5.61
2023-06-19T10:13:51.612Z,16.20
2023-06-19T10:14:51.689Z,36.39
2023-06-19T10:15:51.756Z,25.00
2023-06-19T10:16:51.902Z,34.46
2023-06-19T10:17:51.940Z,25.00
2023-06-19T10:18:51.942Z,33.26
2023-06-19T10:19:51.949Z,0.00
2023-06-19T10:20:51.949Z,6.59
2023-06-19T10:21:51.961Z,0.00
2023-06-19T10:22:51.960Z,0.00
2023-06-19T10:23:51.994Z,0.00
2023-06-19T10:24:51.966Z,12.69
2023-06-19T10:25:51.970Z,27.92
2023-06-19T10:26:51.974Z,32.07
2023-06-19T10:27:52.005Z,24.62
2023-06-19T10:28:52.042Z,31.33
2023-06-19T10:30:03.633Z,63.62
2023-06-19T10:30:53.183Z,49.71
2023-06-19T10:31:52.139Z,22.91
2023-06-19T10:32:52.218Z,2.76
2023-06-19T10:33:52.164Z,12.66
2023-06-19T10:34:52.186Z,10.55
2023-06-19T10:35:52.205Z,56.27
2023-06-19T10:36:52.203Z,80.02
2023-06-19T10:37:52.193Z,94.93
2023-06-19T10:38:52.216Z,156.70
2023-06-19T10:39:52.277Z,186.28
2023-06-19T10:40:52.278Z,187.87
2023-06-19T10:41:52.333Z,198.99
2023-06-19T10:42:52.312Z,218.43
2023-06-19T10:43:52.292Z,237.75
2023-06-19T10:44:52.295Z,305.27
2023-06-19T10:45:52.350Z,248.58
2023-06-19T10:46:52.312Z,246.82
2023-06-19T10:47:52.349Z,246.87
2023-06-19T10:48:52.342Z,232.17
2023-06-19T10:49:52.352Z,222.63
2023-06-19T10:50:52.362Z,212.43
2023-06-19T10:51:52.375Z,199.74
2023-06-19T10:52:52.384Z,179.56
2023-06-19T10:53:52.424Z,165.12
2023-06-19T10:54:52.466Z,183.23
2023-06-19T10:55:52.534Z,194.92
2023-06-19T10:56:52.602Z,209.94
2023-06-19T10:57:52.665Z,218.92
2023-06-19T10:58:52.695Z,232.90
2023-06-19T10:59:52.749Z,250.38
2023-06-19T11:00:52.772Z,250.00
2023-06-19T11:01:52.803Z,250.00
2023-06-19T11:02:52.909Z,250.00
2023-06-19T11:03:53.023Z,249.68
2023-06-19T11:04:52.963Z,250.00
2023-06-19T11:05:53.038Z,250.61
2023-06-19T11:06:53.090Z,250.18
2023-06-19T11:07:53.182Z,249.81
2023-06-19T11:08:53.327Z,250.00
2023-06-19T11:09:53.252Z,250.30
2023-06-19T11:10:53.268Z,250.53
2023-06-19T11:11:53.275Z,250.77
2023-06-19T11:12:53.293Z,253.78
2023-06-19T11:13:53.284Z,262.54
2023-06-19T11:14:53.312Z,282.07
2023-06-19T11:15:53.344Z,314.00
2023-06-19T11:16:53.353Z,304.01
2023-06-19T11:17:53.407Z,282.89
2023-06-19T11:18:53.295Z,266.09
2023-06-19T11:19:53.318Z,252.06
2023-06-19T11:20:53.321Z,247.09
2023-06-19T11:21:53.362Z,247.48
2023-06-19T11:22:53.435Z,249.76
2023-06-19T11:23:53.506Z,250.00
2023-06-19T11:24:53.502Z,250.06
2023-06-19T11:25:53.525Z,250.11
2023-06-19T11:26:53.564Z,250.27
2023-06-19T11:27:53.534Z,251.91
2023-06-19T11:28:53.570Z,255.05
2023-06-19T11:29:53.529Z,250.00
2023-06-19T11:30:53.572Z,248.56
2023-06-19T11:31:53.533Z,246.16
2023-06-19T11:32:53.566Z,247.30
2023-06-19T11:33:53.542Z,244.22
2023-06-19T11:34:53.544Z,237.96
2023-06-19T11:35:53.585Z,235.69
2023-06-19T11:36:53.564Z,232.33
2023-06-19T11:37:53.584Z,230.42
2023-06-19T11:38:53.581Z,231.63
2023-06-19T11:39:53.657Z,232.77
2023-06-19T11:40:53.613Z,221.36
2023-06-19T11:41:55.115Z,218.57
2023-06-19T11:42:53.624Z,215.03
2023-06-19T11:43:53.689Z,209.48
2023-06-19T11:44:53.764Z,200.50
2023-06-19T11:45:53.924Z,195.66
2023-06-19T11:46:53.900Z,188.63
2023-06-19T11:47:54.033Z,182.83
2023-06-19T11:49:07.128Z,177.56
2023-06-19T11:49:55.053Z,175.17
2023-06-19T11:50:54.079Z,169.15
2023-06-19T11:51:54.060Z,165.20
2023-06-19T11:52:54.066Z,159.25
2023-06-19T11:53:54.077Z,158.73
2023-06-19T11:54:54.069Z,157.94
2023-06-19T11:55:54.084Z,158.89
2023-06-19T11:56:54.097Z,158.86
2023-06-19T11:57:54.107Z,162.19
2023-06-19T11:58:54.097Z,161.51
2023-06-19T11:59:54.093Z,161.87
2023-06-19T12:00:54.168Z,162.36
2023-06-19T12:01:54.258Z,161.58
2023-06-19T12:02:54.349Z,158.29
2023-06-19T12:03:54.445Z,159.95
2023-06-19T12:04:54.494Z,164.91
2023-06-19T12:05:54.537Z,173.50
2023-06-19T12:06:54.588Z,180.80
2023-06-19T12:07:54.664Z,186.13
2023-06-19T12:08:54.718Z,189.76
2023-06-19T12:09:54.788Z,195.01
2023-06-19T12:10:54.869Z,196.66
2023-06-19T12:11:54.930Z,202.35
2023-06-19T12:12:55.011Z,205.70
2023-06-19T12:13:55.041Z,209.47
2023-06-19T12:14:55.081Z,214.40
2023-06-19T12:15:55.155Z,218.30
2023-06-19T12:16:55.279Z,225.57
2023-06-19T12:17:55.308Z,231.80
2023-06-19T12:18:55.348Z,235.95
2023-06-19T12:19:55.357Z,236.12
2023-06-19T12:20:55.364Z,237.39
2023-06-19T12:21:55.399Z,244.39
2023-06-19T12:22:55.383Z,247.92
2023-06-19T12:23:55.396Z,250.49
2023-06-19T12:24:55.403Z,244.16
2023-06-19T12:25:55.391Z,236.39
2023-06-19T12:26:55.389Z,230.30
2023-06-19T12:27:55.952Z,223.83
2023-06-19T12:28:55.441Z,218.05
2023-06-19T12:29:55.509Z,216.45
2023-06-19T12:30:55.586Z,212.59
2023-06-19T12:31:55.616Z,210.15
2023-06-19T12:32:55.702Z,206.29
2023-06-19T12:33:56.533Z,197.51
2023-06-19T12:34:55.699Z,195.37
2023-06-19T12:35:55.745Z,196.56
2023-06-19T12:36:55.806Z,199.52
2023-06-19T12:37:55.852Z,202.88
2023-06-19T12:38:55.910Z,206.33